Latest Coastal Weather Observations for Bundaberg

IDQ60701

Issued at 4:51 pm EST Thursday 3 September 2015 (issued every 10 minutes, with the page automatically refreshed every 10 minutes)

About coastal observations | Map of coastal stations | Coastal observations for QLD | Marine services | Other Formats
Station Details ID: 039128 Name: BUNDABERG AERO Lat: -24.91 Lon: 152.32 Height: 30.82 m
Data from the previous 72 hours. | See also: Recent months at Bundaberg
Date/Time
EST
Temp

°C
Wind Pressure Rain
since 9am
mm
Weather Cloud Vis
km
Sea
Height
m
Swell
Dir
 
Speed
knots
Gust
knots
hPa Trend Height
m
Period
s
Dir
03/04:30pm 23.7 N 15 19 1010.8 - 0.0 - Partly cloudy 10 - - - -
03/04:00pm 23.9 NNW 16 22 1010.7 - 0.0 - Partly cloudy 10 - - - -
03/03:30pm 24.2 NNW 18 25 1010.2 - 0.0 - Partly cloudy 10 - - - -
03/03:00pm 24.7 N 22 28 1009.6 - 0.0 - - 10 - - - -
03/02:35pm 26.5 N 22 32 1009.6 - 0.0 - - 10 - - - -
03/02:30pm 25.9 N 23 31 1009.4 - 0.0 - - 10 - - - -
03/02:00pm 24.2 N 24 30 1009.6 - 0.0 - - 10 - - - -
03/01:30pm 25.7 N 25 31 1009.9 - 0.0 - - 10 - - - -
03/01:00pm 26.2 N 23 27 1010.7 - 0.0 - Partly cloudy 10 - - - -
03/12:30pm 25.9 N 23 31 1011.1 - 0.0 - Partly cloudy 10 - - - -
03/12:00pm 26.4 N 21 27 1011.9 - 0.0 - Partly cloudy 10 - - - -
03/11:30am 25.3 NNW 21 27 1012.7 - 0.0 - Partly cloudy 10 - - - -
03/11:00am 25.3 N 20 27 1013.3 - 0.0 - Partly cloudy 10 - - - -
03/10:30am 23.4 N 20 27 1014.1 - 0.0 - Cloudy 10 - - - -
03/10:04am 23.3 N 20 28 1014.2 - 0.0 - Cloudy 10 - - - -
03/10:00am 23.6 N 19 27 1014.0 - 0.0 - Cloudy 10 - - - -
03/09:30am 23.0 N 21 30 1014.4 - 0.0 - Cloudy 10 - - - -
03/09:17am 23.7 N 21 31 1014.6 - 0.0 - Cloudy 10 - - - -
03/09:00am 23.3 N 20 28 1014.4 - 0.8 - Mostly cloudy 10 - - - -
03/08:30am 21.8 NNW 18 23 1015.1 - 0.8 - Partly cloudy 10 - - - -
03/08:05am 21.7 N 18 24 1014.7 - 0.8 - Partly cloudy 10 - - - -
03/08:00am 21.6 N 19 24 1014.6 - 0.8 - Partly cloudy 10 - - - -
03/07:41am 21.1 N 17 25 1014.8 - 0.8 - Partly cloudy 10 - - - -
03/07:30am 20.9 N 15 18 1015.1 - 0.8 - Partly cloudy 10 - - - -
03/07:00am 20.3 NNW 10 15 1015.1 - 0.8 - Cloudy 10 - - - -
03/06:30am 20.2 N 15 21 1014.7 - 0.8 - Partly cloudy 10 - - - -
03/06:28am 20.2 N 15 21 1014.6 - 0.8 - Partly cloudy 10 - - - -
03/06:00am 20.2 N 12 17 1014.3 - 0.8 - Cloudy 10 - - - -
03/05:30am 20.1 N 10 14 1014.3 - 0.8 - Partly cloudy 10 - - - -
03/05:00am 19.8 NNE 13 16 1013.8 - 0.8 - Partly cloudy 10 - - - -
03/04:30am 20.0 NNW 8 11 1014.6 - 0.4 - Partly cloudy 10 - - - -
03/04:18am 20.0 NW 8 11 1014.7 - 0.2 - Partly cloudy 10 - - - -
03/04:00am 20.6 WNW 7 11 1015.0 - 0.0 - Partly cloudy 10 - - - -
03/03:48am 20.6 WNW 7 11 1014.8 - 0.0 - Partly cloudy 10 - - - -
03/03:30am 20.7 NNW 11 15 1013.8 - 0.0 - Partly cloudy 10 - - - -
03/03:00am 20.7 N 11 15 1013.4 - 0.0 - Mostly cloudy 10 - - - -
03/02:30am 20.7 N 12 15 1013.7 - 0.0 - Partly cloudy 10 - - - -
03/02:00am 20.7 N 12 16 1014.2 - 0.0 - Cloudy 10 - - - -
03/01:30am 20.6 N 12 15 1014.4 - 0.0 - Partly cloudy 10 - - - -
03/01:00am 20.5 N 11 14 1014.5 - 0.0 - Partly cloudy 10 - - - -
03/12:30am 20.5 N 11 14 1015.3 - 0.0 - Partly cloudy 10 - - - -
03/12:00am 20.3 N 10 13 1015.7 - 0.0 - Cloudy 10 - - - -
 
Date/Time
EST
Temp

°C
Wind Pressure Rain
since 9am
mm
Weather Cloud Vis
km
Sea
Height
m
Swell
Dir
 
Speed
knots
Gust
knots
hPa Trend Height
m
Period
s
Dir
02/11:30pm 19.7 N 9 12 1015.7 - 0.0 - - 10 - - - -
02/11:00pm 19.5 N 9 11 1015.9 - 0.0 - - 10 - - - -
02/10:30pm 19.5 N 9 12 1016.1 - 0.0 - - 10 - - - -
02/10:00pm 19.4 N 9 12 1016.4 - 0.0 - - 10 - - - -
02/09:30pm 19.2 N 10 12 1016.0 - 0.0 - - 10 - - - -
02/09:00pm 19.2 N 8 11 1016.2 - 0.0 - - 10 - - - -
02/08:30pm 19.3 N 9 10 1016.2 - 0.0 - - 10 - - - -
02/08:00pm 19.2 N 9 11 1016.1 - 0.0 - - 10 - - - -
02/07:30pm 19.4 N 10 15 1016.0 - 0.0 - - 10 - - - -
02/07:00pm 19.5 N 10 13 1015.9 - 0.0 - - 10 - - - -
02/06:30pm 19.9 N 10 14 1015.9 - 0.0 - - 10 - - - -
02/06:00pm 20.1 N 13 18 1015.6 - 0.0 - - 10 - - - -
02/05:30pm 20.6 N 14 19 1015.5 - 0.0 - - 10 - - - -
02/05:00pm 21.2 N 16 22 1015.4 - 0.0 - - 10 - - - -
02/04:30pm 21.9 N 16 21 1015.4 - 0.0 - - 10 - - - -
02/04:00pm 23.0 N 15 21 1015.3 - 0.0 - - 10 - - - -
02/03:30pm 23.5 N 17 21 1015.3 - 0.0 - Partly cloudy 10 - - - -
02/03:00pm 23.6 N 16 21 1015.5 - 0.0 - - 10 - - - -
02/02:30pm 24.1 N 17 22 1015.7 - 0.0 - - 10 - - - -
02/02:00pm 24.9 N 17 24 1016.1 - 0.0 - - 10 - - - -
02/01:30pm 25.1 N 16 20 1016.7 - 0.0 - - 10 - - - -
02/01:00pm 24.9 N 15 19 1017.2 - 0.0 - - 10 - - - -
02/12:30pm 25.8 N 13 19 1017.7 - 0.0 - - 10 - - - -
02/12:00pm 25.9 N 13 17 1018.2 - 0.0 - - 10 - - - -
02/11:30am 26.7 NNW 10 14 1018.5 - 0.0 - - 10 - - - -
02/11:00am 24.7 NNW 8 12 1018.9 - 0.0 - - 10 - - - -
02/10:30am 24.4 NNW 6 14 1019.3 - 0.0 - - 10 - - - -
02/10:00am 22.9 NNW 7 9 1019.6 - 0.0 - - 10 - - - -
02/09:30am 21.1 NW 7 10 1019.9 - 0.0 - - 10 - - - -
02/09:00am 19.3 WNW 5 7 1020.1 - 0.0 - - 10 - - - -
02/08:30am 17.4 WNW 3 5 1020.1 - 0.0 - - 10 - - - -
02/08:00am 14.1 WNW 3 5 1019.9 - 0.0 - - 10 - - - -
02/07:30am 12.9 WSW 1 3 1019.4 - 0.0 - - 10 - - - -
02/07:00am 10.1 W 5 5 1019.5 - 0.0 - - 10 - - - -
02/06:30am 7.5 CALM 0 0 1019.3 - 0.0 - - 10 - - - -
02/06:00am 7.5 CALM 0 0 1018.9 - 0.0 - - 10 - - - -
02/05:30am 7.6 SSW 1 4 1018.5 - 0.0 - - 10 - - - -
02/05:00am 8.2 S 1 3 1018.1 - 0.0 - - 10 - - - -
02/04:30am 8.6 W 1 3 1017.9 - 0.0 - - 10 - - - -
02/04:00am 7.1 N 5 8 1017.3 - 0.0 - - 10 - - - -
02/03:30am 8.2 NE 1 3 1017.1 - 0.0 - - 10 - - - -
02/03:00am 8.8 CALM 0 0 1017.2 - 0.0 - - 10 - - - -
02/02:30am 9.0 WNW 2 6 1017.3 - 0.0 - - 10 - - - -
02/02:00am 11.2 SW 6 8 1017.2 - 0.0 - - 10 - - - -
02/01:30am 11.0 WSW 4 5 1017.2 - 0.0 - - 10 - - - -
02/01:00am 10.3 WNW 6 7 1017.3 - 0.0 - - 10 - - - -
02/12:30am 10.8 NW 5 6 1017.4 - 0.0 - - 10 - - - -
02/12:00am 11.1 WNW 8 9 1017.3 - 0.0 - - 10 - - - -
 
Date/Time
EST
Temp

°C
Wind Pressure Rain
since 9am
mm
Weather Cloud Vis
km
Sea
Height
m
Swell
Dir
 
Speed
knots
Gust
knots
hPa Trend Height
m
Period
s
Dir
01/11:30pm 10.8 WNW 6 7 1017.1 - 0.0 - - 10 - - - -
01/11:00pm 11.7 NW 7 8 1017.1 - 0.0 - - 10 - - - -
01/10:30pm 12.2 NW 6 7 1017.2 - 0.0 - - 10 - - - -
01/10:00pm 12.8 NW 6 7 1017.0 - 0.0 - - 10 - - - -
01/09:30pm 13.0 NNW 5 6 1017.1 - 0.0 - - 10 - - - -
01/09:00pm 13.6 NW 4 5 1016.9 - 0.0 - - 10 - - - -
01/08:30pm 14.0 NW 4 5 1016.9 - 0.0 - - 10 - - - -
01/08:00pm 13.2 NW 6 7 1016.7 - 0.0 - - 10 - - - -
01/07:30pm 15.2 N 4 7 1016.5 - 0.0 - - 10 - - - -
01/07:00pm 14.4 NNW 6 7 1016.0 - 0.0 - - 10 - - - -
01/06:30pm 15.4 NNW 6 7 1015.5 - 0.0 - - 10 - - - -
01/06:00pm 16.5 NNW 7 9 1015.4 - 0.0 - - 10 - - - -
01/05:30pm 18.5 NNW 11 14 1015.1 - 0.0 - - 10 - - - -
01/05:00pm 19.7 NNW 13 17 1014.7 - 0.0 - - 10 - - - -
01/04:30pm 20.7 N 13 18 1014.6 - 0.0 - - 10 - - - -
01/04:00pm 21.7 N 15 18 1014.4 - 0.0 - - 10 - - - -
01/03:30pm 22.5 N 14 17 1014.2 - 0.0 - - 10 - - - -
01/03:00pm 23.1 N 14 18 1014.2 - 0.0 - - 10 - - - -
01/02:30pm 24.7 NW 8 12 1014.4 - 0.0 - - 10 - - - -
01/02:00pm 24.7 W 10 15 1014.8 - 0.0 - - 10 - - - -
01/01:30pm 24.2 W 9 14 1015.2 - 0.0 - - 10 - - - -
01/01:00pm 24.5 WNW 7 10 1015.8 - 0.0 - - 10 - - - -
01/12:30pm 23.3 W 9 16 1016.4 - 0.0 - - 10 - - - -
01/12:00pm 22.9 W 8 11 1017.1 - 0.0 - - 10 - - - -
01/11:30am 22.1 WSW 8 13 1017.6 - 0.0 - - 10 - - - -
01/11:00am 21.6 W 7 11 1018.1 - 0.0 - - 10 - - - -
01/10:30am 21.2 SW 7 10 1018.4 - 0.0 - - 10 - - - -
01/10:00am 20.2 SW 9 13 1018.5 - 0.0 - - 10 - - - -
01/09:30am 19.5 SSW 7 13 1018.8 - 0.0 - - 10 - - - -
01/09:00am 18.1 S 5 8 1018.8 - 0.2 - - 10 - - - -
01/08:30am 16.6 SW 5 7 1018.8 - 0.2 - - 10 - - - -
01/08:00am 14.3 SW 4 6 1018.7 - 0.2 - - 10 - - - -
01/07:30am 11.9 W 4 5 1018.6 - 0.2 - - 10 - - - -
01/07:00am 11.0 W 3 5 1018.0 - 0.2 - - 10 - - - -
01/06:30am 9.3 WSW 4 5 1017.9 - 0.2 - - 10 - - - -
01/06:00am 9.2 WSW 6 7 1017.4 - 0.2 - - 10 - - - -
01/05:30am 9.7 WSW 6 6 1017.0 - 0.2 - - 10 - - - -
01/05:00am 9.1 SW 5 7 1016.7 - 0.2 - - 10 - - - -
01/04:30am 8.5 SW 5 6 1016.6 - 0.2 - - 10 - - - -
01/04:00am 8.5 W 6 6 1016.4 - 0.2 - - 10 - - - -
01/03:30am 7.7 WSW 4 6 1016.3 - 0.2 - - 10 - - - -
01/03:00am 8.9 WSW 4 5 1016.7 - 0.2 - - 10 - - - -
01/02:30am 11.5 WSW 6 8 1016.7 - 0.2 - - 10 - - - -
01/02:00am 11.0 WSW 4 5 1016.8 - 0.2 - - 10 - - - -
01/01:30am 11.9 WSW 4 7 1017.1 - 0.2 - - 10 - - - -
01/01:00am 12.0 WSW 7 9 1017.2 - 0.2 - - 10 - - - -
01/12:30am 12.7 WSW 7 9 1017.2 - 0.2 - - 10 - - - -
01/12:00am 12.6 WSW 8 9 1017.1 - 0.2 - - 10 - - - -
 
Date/Time
EST
Temp

°C
Wind Pressure Rain
since 9am
mm
Weather Cloud Vis
km
Sea
Height
m
Swell
Dir
 
Speed
knots
Gust
knots
hPa Trend Height
m
Period
s
Dir
31/11:30pm 11.1 W 7 8 1017.1 - 0.2 - - 10 - - - -
31/11:00pm 11.4 W 6 7 1017.0 - 0.2 - - 10 - - - -
31/10:30pm 10.8 W 6 7 1016.8 - 0.2 - - 10 - - - -
31/10:00pm 12.3 WSW 7 8 1016.8 - 0.2 - - 10 - - - -
31/09:30pm 12.1 WSW 7 8 1016.9 - 0.2 - - 10 - - - -
31/09:00pm 12.7 WSW 6 7 1016.7 - 0.2 - - 10 - - - -
31/08:30pm 14.0 W 6 7 1016.2 - 0.2 - - 10 - - - -
31/08:00pm 11.9 WNW 6 7 1015.9 - 0.2 - - 10 - - - -
31/07:30pm 15.3 W 5 5 1015.4 - 0.2 - - 10 - - - -
31/07:00pm 14.3 W 5 5 1015.0 - 0.2 - - 10 - - - -
31/06:30pm 16.4 WSW 1 3 1014.6 - 0.2 - - 10 - - - -
31/06:00pm 18.4 SW 4 5 1014.4 - 0.2 - - 10 - - - -
31/05:30pm 20.1 SW 6 8 1014.1 - 0.2 - - 10 - - - -
31/05:00pm 21.7 SW 7 10 1013.9 - 0.2 - - 10 - - - -

Other Formats:

Comma delimited format used in spreadsheet applications
http://www.bom.gov.au/fwo/IDQ60701/IDQ60701.94387.axf

JavaScript Object Notation format (JSON) in row-major order
http://www.bom.gov.au/fwo/IDQ60701/IDQ60701.94387.json